Time;durP1;ratioP1;P1;durP2;ratioP2;P2;SDS_P1;SDS_P2;PMS_P1;PMS_P2;Temp;Humidity;BMP_temperature;BMP_pressure;BME280_temperature;BME280_humidity;BME280_pressure;Samples;Min_cycle;Max_cycle;Signal;HPM_P1;HPM_P2
2022/07/29 00:01:36;;;;;;;3.65;2.15;;;;;;;;;;5010336;28;20435;-49
2022/07/29 00:04:22;;;;;;;3.38;1.92;;;;;;;;;;5004426;28;20553;-49
2022/07/29 00:07:08;;;;;;;5.07;2.08;;;;;;;;;;5008751;28;20049;-47
2022/07/29 00:09:53;;;;;;;8.40;2.85;;;;;;;;;;5008980;28;20034;-47
2022/07/29 00:12:39;;;;;;;5.50;2.17;;;;;;;;;;5001148;28;20049;-47
2022/07/29 00:15:25;;;;;;;4.20;2.00;;;;;;;;;;5005503;28;20767;-51
2022/07/29 00:18:11;;;;;;;6.63;2.17;;;;;;;;;;5004974;28;20092;-47
2022/07/29 00:20:57;;;;;;;2.65;1.90;;;;;;;;;;5007870;28;20026;-54
2022/07/29 00:23:42;;;;;;;2.92;2.30;;;;;;;;;;5006866;28;20038;-49
2022/07/29 00:26:31;;;;;;;1.92;1.70;;;;;;;;;;5007125;28;20030;-48
2022/07/29 00:29:17;;;;;;;3.05;1.80;;;;;;;;;;5002157;28;20045;-53
2022/07/29 00:32:02;;;;;;;4.80;2.08;;;;;;;;;;5007391;28;20058;-51
2022/07/29 00:37:52;;;;;;;6.18;2.38;;;;;;;;;;5006250;28;20121;-47
2022/07/29 00:40:38;;;;;;;5.10;2.45;;;;;;;;;;5009551;28;20116;-49
2022/07/29 00:43:24;;;;;;;3.22;2.40;;;;;;;;;;5004581;28;20534;-50
2022/07/29 00:46:10;;;;;;;3.45;2.10;;;;;;;;;;5009296;28;20076;-47
2022/07/29 00:48:57;;;;;;;2.78;2.58;;;;;;;;;;5005242;28;20034;-46
2022/07/29 00:51:42;;;;;;;10.73;3.22;;;;;;;;;;5003520;28;20034;-47
2022/07/29 00:54:29;;;;;;;5.30;2.50;;;;;;;;;;5007707;28;20084;-47
2022/07/29 00:57:14;;;;;;;5.70;2.53;;;;;;;;;;4999326;28;20533;-48
2022/07/29 01:00:00;;;;;;;6.93;2.85;;;;;;;;;;4998971;28;20030;-48
2022/07/29 01:02:50;;;;;;;3.95;2.53;;;;;;;;;;5004423;28;20033;-52
2022/07/29 01:05:36;;;;;;;2.97;2.50;;;;;;;;;;5005692;28;20498;-47
2022/07/29 01:08:23;;;;;;;10.63;2.80;;;;;;;;;;5006871;28;20389;-46
2022/07/29 01:11:09;;;;;;;6.45;2.42;;;;;;;;;;5006870;28;20490;-48
2022/07/29 01:13:55;;;;;;;4.78;2.72;;;;;;;;;;5004002;28;20040;-48
2022/07/29 01:16:55;;;;;;;5.13;2.72;;;;;;;;;;5004824;28;20156;-49
2022/07/29 01:20:10;;;;;;;5.10;2.58;;;;;;;;;;5005275;28;20049;-51
2022/07/29 01:23:37;;;;;;;9.95;3.22;;;;;;;;;;5003267;28;21474;-47
2022/07/29 01:26:32;;;;;;;3.15;2.60;;;;;;;;;;4987558;28;20034;-49
2022/07/29 01:29:29;;;;;;;5.18;2.72;;;;;;;;;;4983776;28;20026;-48
2022/07/29 01:32:20;;;;;;;3.78;2.50;;;;;;;;;;4981998;28;20490;-47
2022/07/29 01:35:20;;;;;;;4.03;2.83;;;;;;;;;;4984650;28;20133;-49
2022/07/29 01:38:23;;;;;;;4.45;2.33;;;;;;;;;;4986109;28;21851;-47
2022/07/29 01:41:14;;;;;;;7.68;2.58;;;;;;;;;;4986402;28;20692;-47
2022/07/29 01:44:18;;;;;;;6.95;2.45;;;;;;;;;;4989255;28;20041;-50
2022/07/29 01:47:20;;;;;;;6.82;2.35;;;;;;;;;;4987964;28;20099;-52
2022/07/29 01:50:08;;;;;;;9.00;2.63;;;;;;;;;;4990616;28;20467;-49
2022/07/29 01:53:00;;;;;;;5.80;2.88;;;;;;;;;;4988673;28;20034;-48
2022/07/29 01:55:46;;;;;;;5.22;3.03;;;;;;;;;;4989974;28;20030;-47
2022/07/29 01:58:34;;;;;;;7.20;2.55;;;;;;;;;;5008927;28;20431;-47
2022/07/29 02:01:22;;;;;;;5.68;2.70;;;;;;;;;;5011502;28;20034;-49
2022/07/29 02:04:10;;;;;;;6.80;2.80;;;;;;;;;;5007400;28;20091;-49
2022/07/29 02:07:04;;;;;;;4.82;3.00;;;;;;;;;;5005528;28;20030;-47
2022/07/29 02:09:52;;;;;;;3.92;2.90;;;;;;;;;;5010959;28;20542;-47
2022/07/29 02:12:39;;;;;;;4.57;2.50;;;;;;;;;;5006327;28;20078;-47
2022/07/29 02:15:28;;;;;;;5.88;2.67;;;;;;;;;;5009203;28;20087;-47
2022/07/29 02:18:18;;;;;;;5.60;2.60;;;;;;;;;;5008605;28;20036;-48
2022/07/29 02:21:04;;;;;;;3.28;2.42;;;;;;;;;;5008813;28;20114;-47
2022/07/29 02:23:52;;;;;;;5.50;2.88;;;;;;;;;;5007566;28;20458;-52
2022/07/29 02:26:41;;;;;;;4.22;3.17;;;;;;;;;;5009242;28;20041;-50
2022/07/29 02:29:29;;;;;;;5.60;2.70;;;;;;;;;;5008014;28;20084;-49
2022/07/29 02:32:17;;;;;;;6.60;3.20;;;;;;;;;;5010532;28;20030;-49
2022/07/29 02:35:03;;;;;;;8.95;3.28;;;;;;;;;;5007849;28;20080;-48
2022/07/29 02:40:58;;;;;;;3.50;2.70;;;;;;;;;;5010276;28;20049;-49
2022/07/29 02:43:48;;;;;;;6.78;2.97;;;;;;;;;;5008717;28;20033;-49
2022/07/29 02:46:36;;;;;;;6.22;2.75;;;;;;;;;;5007738;28;20038;-52
2022/07/29 02:49:22;;;;;;;4.15;2.70;;;;;;;;;;5008378;28;20025;-49
2022/07/29 02:52:31;;;;;;;8.38;2.88;;;;;;;;;;5009678;28;20036;-50
2022/07/29 02:55:29;;;;;;;2.65;2.42;;;;;;;;;;5009131;28;20041;-53
2022/07/29 02:58:28;;;;;;;3.35;2.97;;;;;;;;;;5006321;28;20038;-47
2022/07/29 03:01:22;;;;;;;4.93;2.35;;;;;;;;;;5008433;28;20030;-47
2022/07/29 03:04:11;;;;;;;9.60;2.80;;;;;;;;;;5006040;28;20046;-52
2022/07/29 03:06:58;;;;;;;5.30;2.53;;;;;;;;;;5009788;28;20045;-49
2022/07/29 03:09:45;;;;;;;11.35;3.40;;;;;;;;;;5006658;28;20453;-47
2022/07/29 03:12:31;;;;;;;4.72;2.92;;;;;;;;;;5003597;28;20045;-47
2022/07/29 03:15:18;;;;;;;4.63;3.22;;;;;;;;;;5006547;28;20136;-49
2022/07/29 03:18:05;;;;;;;7.65;2.65;;;;;;;;;;5006336;28;20080;-48
2022/07/29 03:20:51;;;;;;;6.68;2.70;;;;;;;;;;5007603;28;20045;-49
2022/07/29 03:23:37;;;;;;;3.65;2.67;;;;;;;;;;5009422;28;20041;-49
2022/07/29 03:26:23;;;;;;;4.85;2.47;;;;;;;;;;5009550;28;20030;-47
2022/07/29 03:29:08;;;;;;;6.18;3.13;;;;;;;;;;5008700;28;20072;-53
2022/07/29 03:31:54;;;;;;;5.32;2.75;;;;;;;;;;5005146;28;20033;-48
2022/07/29 03:34:40;;;;;;;5.30;2.67;;;;;;;;;;5008127;28;20038;-47
2022/07/29 03:37:26;;;;;;;5.25;2.78;;;;;;;;;;5009178;28;20499;-47
2022/07/29 03:40:19;;;;;;;11.00;3.80;;;;;;;;;;5008575;28;20019;-46
2022/07/29 03:43:07;;;;;;;6.88;2.70;;;;;;;;;;5007516;28;20968;-47
2022/07/29 03:45:55;;;;;;;3.88;2.67;;;;;;;;;;5008420;28;20048;-47
2022/07/29 03:48:45;;;;;;;5.47;2.60;;;;;;;;;;5007937;28;20026;-52
2022/07/29 03:51:31;;;;;;;5.25;2.47;;;;;;;;;;5007763;28;20441;-47
2022/07/29 03:54:17;;;;;;;3.83;2.75;;;;;;;;;;5007214;28;20029;-46
2022/07/29 03:57:05;;;;;;;4.80;2.78;;;;;;;;;;5009041;28;20121;-50
2022/07/29 03:59:52;;;;;;;5.75;2.72;;;;;;;;;;5008010;28;20030;-49
2022/07/29 04:02:39;;;;;;;3.85;2.75;;;;;;;;;;5006837;28;20041;-47
2022/07/29 04:05:24;;;;;;;5.13;2.78;;;;;;;;;;5005527;28;20048;-51
2022/07/29 04:08:10;;;;;;;3.00;2.70;;;;;;;;;;5006272;28;20765;-46
2022/07/29 04:10:56;;;;;;;2.58;2.25;;;;;;;;;;5006197;28;20592;-46
2022/07/29 04:13:42;;;;;;;5.05;2.60;;;;;;;;;;5004577;28;20434;-47
2022/07/29 04:16:27;;;;;;;6.93;2.70;;;;;;;;;;5006024;28;20106;-47
2022/07/29 04:19:13;;;;;;;4.70;2.50;;;;;;;;;;5006178;28;20030;-46
2022/07/29 04:21:59;;;;;;;7.80;2.70;;;;;;;;;;5001100;28;20364;-47
2022/07/29 04:24:45;;;;;;;5.18;3.22;;;;;;;;;;5007974;28;20041;-49
2022/07/29 04:27:31;;;;;;;3.30;3.00;;;;;;;;;;5004769;28;20088;-46
2022/07/29 04:30:17;;;;;;;7.75;3.45;;;;;;;;;;5006580;28;20057;-52
2022/07/29 04:33:05;;;;;;;4.57;3.00;;;;;;;;;;5005800;28;20033;-48
2022/07/29 04:35:50;;;;;;;6.88;3.08;;;;;;;;;;5008613;28;20052;-51
2022/07/29 04:38:37;;;;;;;8.63;3.10;;;;;;;;;;5000552;28;20057;-49
2022/07/29 04:41:23;;;;;;;6.35;2.55;;;;;;;;;;5006511;28;20084;-51
2022/07/29 04:44:08;;;;;;;9.70;2.80;;;;;;;;;;5005377;28;20399;-50
2022/07/29 04:46:54;;;;;;;5.10;2.97;;;;;;;;;;5005060;28;20030;-50
2022/07/29 04:49:40;;;;;;;4.45;2.92;;;;;;;;;;5005319;28;20050;-52
2022/07/29 04:52:25;;;;;;;10.63;3.38;;;;;;;;;;5007025;28;20179;-51
2022/07/29 04:55:11;;;;;;;5.05;3.00;;;;;;;;;;5005371;28;20034;-49
2022/07/29 04:57:57;;;;;;;5.00;2.80;;;;;;;;;;5006343;28;20146;-52
2022/07/29 05:00:43;;;;;;;7.28;3.38;;;;;;;;;;5007900;28;20033;-52
2022/07/29 05:03:29;;;;;;;6.22;3.17;;;;;;;;;;5005702;28;20065;-49
2022/07/29 05:06:15;;;;;;;5.05;2.80;;;;;;;;;;5006522;28;20076;-47
2022/07/29 05:09:01;;;;;;;4.45;2.83;;;;;;;;;;5007003;28;20568;-52
2022/07/29 05:11:46;;;;;;;6.80;2.90;;;;;;;;;;5004682;28;20056;-48
2022/07/29 05:14:32;;;;;;;6.30;2.90;;;;;;;;;;5007182;28;20030;-48
2022/07/29 05:17:18;;;;;;;6.25;2.90;;;;;;;;;;5005245;28;20030;-50
2022/07/29 05:20:05;;;;;;;11.15;2.72;;;;;;;;;;5005581;28;20037;-46
2022/07/29 05:22:51;;;;;;;8.82;2.95;;;;;;;;;;5004927;28;20435;-48
2022/07/29 05:25:36;;;;;;;3.95;2.75;;;;;;;;;;5001829;28;20060;-50
2022/07/29 05:28:22;;;;;;;9.68;2.80;;;;;;;;;;5004512;28;20406;-50
2022/07/29 05:31:08;;;;;;;10.00;3.22;;;;;;;;;;5006225;28;20455;-48
2022/07/29 05:33:53;;;;;;;3.25;2.88;;;;;;;;;;5005663;28;20034;-52
2022/07/29 05:36:39;;;;;;;4.57;2.47;;;;;;;;;;5007814;28;20479;-49
2022/07/29 05:39:25;;;;;;;5.82;2.78;;;;;;;;;;5007216;28;20482;-51
2022/07/29 05:42:11;;;;;;;5.57;3.05;;;;;;;;;;5003592;28;20502;-51
2022/07/29 05:44:57;;;;;;;3.80;2.80;;;;;;;;;;5001116;28;20049;-46
2022/07/29 05:47:43;;;;;;;5.57;2.70;;;;;;;;;;5008628;28;20691;-46
2022/07/29 05:50:28;;;;;;;7.72;3.25;;;;;;;;;;5003486;28;20403;-49
2022/07/29 05:53:14;;;;;;;6.80;2.83;;;;;;;;;;5007078;28;20360;-53
2022/07/29 05:56:04;;;;;;;8.32;2.97;;;;;;;;;;5005602;28;20042;-53
2022/07/29 05:58:50;;;;;;;6.97;3.08;;;;;;;;;;5004191;28;20117;-49
2022/07/29 06:01:39;;;;;;;4.03;2.75;;;;;;;;;;5006314;28;20036;-48
2022/07/29 06:04:24;;;;;;;12.48;2.88;;;;;;;;;;5005920;28;20390;-48
2022/07/29 06:07:11;;;;;;;8.82;3.42;;;;;;;;;;5005370;28;20060;-51
2022/07/29 06:09:56;;;;;;;6.70;2.90;;;;;;;;;;5004662;28;20026;-50
2022/07/29 06:12:42;;;;;;;8.13;3.30;;;;;;;;;;5004584;28;20076;-47
2022/07/29 06:15:28;;;;;;;8.90;2.63;;;;;;;;;;5004904;28;20026;-51
2022/07/29 06:18:13;;;;;;;8.82;3.05;;;;;;;;;;5006930;28;20150;-52
2022/07/29 06:20:59;;;;;;;9.20;2.80;;;;;;;;;;5004910;28;20092;-51
2022/07/29 06:23:45;;;;;;;11.73;2.97;;;;;;;;;;5004345;28;20018;-51
2022/07/29 06:26:31;;;;;;;12.13;3.28;;;;;;;;;;5007384;28;20105;-54
2022/07/29 06:29:16;;;;;;;12.23;2.90;;;;;;;;;;5007854;28;20045;-49
2022/07/29 06:32:03;;;;;;;7.72;2.58;;;;;;;;;;5009298;28;20060;-52
2022/07/29 06:34:49;;;;;;;11.50;2.95;;;;;;;;;;5006611;28;20081;-49
2022/07/29 06:37:35;;;;;;;8.02;3.20;;;;;;;;;;5005645;28;20057;-51
2022/07/29 06:43:31;;;;;;;4.88;2.53;;;;;;;;;;5011274;28;20632;-53
2022/07/29 06:46:19;;;;;;;4.95;2.90;;;;;;;;;;5010090;28;20043;-50
2022/07/29 06:49:05;;;;;;;9.73;2.75;;;;;;;;;;5004634;28;20098;-47
2022/07/29 06:51:51;;;;;;;8.38;2.80;;;;;;;;;;5009219;28;20053;-51
2022/07/29 06:54:38;;;;;;;7.97;2.75;;;;;;;;;;5009422;28;20109;-49
2022/07/29 06:57:24;;;;;;;8.15;2.97;;;;;;;;;;5010194;28;20049;-52
2022/07/29 07:00:10;;;;;;;5.25;2.55;;;;;;;;;;5007158;28;20236;-49
2022/07/29 07:02:56;;;;;;;14.02;3.13;;;;;;;;;;5006464;28;20091;-49
2022/07/29 07:05:42;;;;;;;8.68;3.00;;;;;;;;;;5008197;28;20033;-51
2022/07/29 07:08:27;;;;;;;8.63;2.40;;;;;;;;;;5003522;28;20132;-50
2022/07/29 07:11:13;;;;;;;6.00;2.67;;;;;;;;;;5009436;28;20040;-47
2022/07/29 07:13:59;;;;;;;3.05;2.03;;;;;;;;;;5009174;28;20112;-49
2022/07/29 07:16:44;;;;;;;9.38;2.40;;;;;;;;;;5006905;28;20037;-48
2022/07/29 07:19:30;;;;;;;5.43;2.00;;;;;;;;;;5010138;28;20557;-49
2022/07/29 07:22:16;;;;;;;6.68;2.88;;;;;;;;;;5009187;28;20030;-47
2022/07/29 07:25:02;;;;;;;9.27;2.75;;;;;;;;;;5007347;28;20026;-49
2022/07/29 07:27:48;;;;;;;9.23;3.22;;;;;;;;;;5008941;28;20038;-47
2022/07/29 07:30:34;;;;;;;4.68;2.33;;;;;;;;;;5006687;28;20042;-52
2022/07/29 07:33:20;;;;;;;13.70;3.05;;;;;;;;;;5005551;28;20418;-47
2022/07/29 07:36:06;;;;;;;8.98;2.55;;;;;;;;;;5003838;28;20108;-48
2022/07/29 07:38:51;;;;;;;6.93;2.72;;;;;;;;;;5006138;28;20033;-48
2022/07/29 07:41:37;;;;;;;3.95;2.70;;;;;;;;;;5007097;28;20037;-51
2022/07/29 07:44:23;;;;;;;6.40;2.95;;;;;;;;;;5006843;28;20022;-50
2022/07/29 07:47:09;;;;;;;8.25;3.03;;;;;;;;;;5009057;28;20117;-50
2022/07/29 07:49:54;;;;;;;6.55;2.88;;;;;;;;;;5009296;28;20038;-50
2022/07/29 07:52:51;;;;;;;7.82;2.95;;;;;;;;;;5006459;28;20042;-48
2022/07/29 07:55:41;;;;;;;9.38;3.00;;;;;;;;;;5005939;28;20030;-53
2022/07/29 07:58:27;;;;;;;6.82;2.80;;;;;;;;;;5007965;28;20092;-48
2022/07/29 08:01:13;;;;;;;8.57;2.75;;;;;;;;;;5007173;28;20037;-48
2022/07/29 08:03:59;;;;;;;5.53;2.45;;;;;;;;;;5005913;28;20025;-47
2022/07/29 08:06:44;;;;;;;5.55;2.38;;;;;;;;;;5006896;28;21005;-51
2022/07/29 08:09:30;;;;;;;10.70;3.13;;;;;;;;;;5003382;28;20446;-52
2022/07/29 08:12:16;;;;;;;13.10;2.78;;;;;;;;;;5004044;28;21026;-49
2022/07/29 08:15:02;;;;;;;5.07;2.85;;;;;;;;;;5005231;28;20032;-46
2022/07/29 08:17:47;;;;;;;3.72;2.08;;;;;;;;;;5008304;28;20045;-49
2022/07/29 08:20:35;;;;;;;5.47;2.50;;;;;;;;;;5007620;28;20037;-49
2022/07/29 08:23:22;;;;;;;5.57;2.70;;;;;;;;;;5005518;28;20030;-49
2022/07/29 08:26:11;;;;;;;9.43;2.70;;;;;;;;;;5006156;28;20534;-47
2022/07/29 08:28:57;;;;;;;4.68;2.58;;;;;;;;;;5005236;28;20095;-51
2022/07/29 08:31:43;;;;;;;4.25;2.55;;;;;;;;;;5002911;28;20046;-48
2022/07/29 08:34:29;;;;;;;6.95;2.53;;;;;;;;;;5002604;28;20030;-50
2022/07/29 08:37:15;;;;;;;8.57;2.55;;;;;;;;;;5008829;28;20088;-46
2022/07/29 08:40:01;;;;;;;3.70;2.05;;;;;;;;;;5008434;28;20057;-53
2022/07/29 08:42:46;;;;;;;5.72;2.38;;;;;;;;;;5006613;28;20054;-49
2022/07/29 08:45:49;;;;;;;7.32;3.17;;;;;;;;;;5006686;28;20034;-50
2022/07/29 08:48:36;;;;;;;4.22;2.53;;;;;;;;;;5003010;28;20108;-50
2022/07/29 08:51:22;;;;;;;7.25;2.65;;;;;;;;;;5005125;28;20036;-51
2022/07/29 08:54:09;;;;;;;3.90;2.60;;;;;;;;;;5006215;28;20121;-50
2022/07/29 08:56:55;;;;;;;5.70;2.50;;;;;;;;;;5007674;28;20046;-46
2022/07/29 08:59:42;;;;;;;7.95;2.78;;;;;;;;;;5005070;28;20038;-50
2022/07/29 09:02:34;;;;;;;6.68;3.00;;;;;;;;;;5003662;28;20040;-48
2022/07/29 09:05:20;;;;;;;6.22;2.60;;;;;;;;;;5001951;28;20029;-52
2022/07/29 09:08:06;;;;;;;5.13;2.63;;;;;;;;;;5005465;28;20092;-53
2022/07/29 09:10:52;;;;;;;11.90;3.08;;;;;;;;;;5005897;28;20062;-46
2022/07/29 09:13:38;;;;;;;3.28;2.70;;;;;;;;;;5005876;28;20060;-50
2022/07/29 09:16:23;;;;;;;11.80;2.88;;;;;;;;;;5005870;28;21823;-52
2022/07/29 09:19:29;;;;;;;9.88;2.42;;;;;;;;;;5001498;28;20518;-51
2022/07/29 09:22:29;;;;;;;10.45;3.10;;;;;;;;;;5007789;28;20438;-48
2022/07/29 09:25:35;;;;;;;12.50;3.17;;;;;;;;;;5004498;28;20033;-52
2022/07/29 09:28:23;;;;;;;9.43;3.47;;;;;;;;;;5005124;28;20083;-51
2022/07/29 09:31:09;;;;;;;8.32;3.22;;;;;;;;;;5004286;28;20045;-51
2022/07/29 09:34:00;;;;;;;5.40;2.95;;;;;;;;;;5005321;28;20030;-51
2022/07/29 09:36:48;;;;;;;6.47;2.90;;;;;;;;;;5006863;28;20561;-48
2022/07/29 09:39:37;;;;;;;4.30;2.78;;;;;;;;;;5008101;28;20147;-51
2022/07/29 09:42:32;;;;;;;5.50;2.65;;;;;;;;;;5005171;28;20498;-49
2022/07/29 09:45:32;;;;;;;6.90;2.83;;;;;;;;;;5004688;28;20057;-48
2022/07/29 09:48:22;;;;;;;5.35;3.03;;;;;;;;;;5001951;28;20100;-46
2022/07/29 09:51:21;;;;;;;6.25;2.80;;;;;;;;;;5004613;28;20030;-46
2022/07/29 09:54:27;;;;;;;9.40;2.90;;;;;;;;;;5004534;28;20053;-48
2022/07/29 09:57:28;;;;;;;9.18;2.50;;;;;;;;;;5006845;28;20404;-48
2022/07/29 10:00:17;;;;;;;17.95;3.15;;;;;;;;;;5006709;28;20033;-52
2022/07/29 10:03:03;;;;;;;9.65;3.05;;;;;;;;;;5005192;28;20061;-46
2022/07/29 10:06:09;;;;;;;6.35;2.92;;;;;;;;;;5007638;28;20057;-50
2022/07/29 10:08:55;;;;;;;13.85;2.83;;;;;;;;;;5008287;28;20427;-47
2022/07/29 10:11:40;;;;;;;4.95;2.63;;;;;;;;;;5008677;28;20026;-46
2022/07/29 10:14:26;;;;;;;3.28;2.40;;;;;;;;;;5009385;28;20065;-47
2022/07/29 10:17:12;;;;;;;10.95;2.72;;;;;;;;;;5011844;28;20057;-48
2022/07/29 10:19:58;;;;;;;7.70;2.50;;;;;;;;;;5010064;28;20038;-48
2022/07/29 10:22:43;;;;;;;6.63;2.95;;;;;;;;;;5004225;28;20037;-46
2022/07/29 10:25:29;;;;;;;4.20;2.70;;;;;;;;;;5007331;28;20022;-51
2022/07/29 10:28:15;;;;;;;9.77;2.92;;;;;;;;;;5006879;28;20025;-47
2022/07/29 10:31:06;;;;;;;12.32;2.92;;;;;;;;;;5007385;28;20581;-46
2022/07/29 10:34:15;;;;;;;11.55;3.05;;;;;;;;;;5007774;28;20034;-46
2022/07/29 10:37:10;;;;;;;14.30;3.00;;;;;;;;;;5009375;28;20038;-46
2022/07/29 10:43:40;;;;;;;11.02;2.90;;;;;;;;;;5005475;28;20080;-51
2022/07/29 10:46:27;;;;;;;5.80;3.03;;;;;;;;;;5007470;28;20064;-46
2022/07/29 10:49:24;;;;;;;11.18;2.75;;;;;;;;;;5007637;28;20029;-53
2022/07/29 10:52:10;;;;;;;4.93;2.72;;;;;;;;;;5010301;28;20065;-46
2022/07/29 10:54:58;;;;;;;9.38;2.90;;;;;;;;;;5006544;28;20525;-47
2022/07/29 10:58:16;;;;;;;9.40;2.90;;;;;;;;;;5007043;28;20402;-47
2022/07/29 11:01:28;;;;;;;3.13;2.67;;;;;;;;;;5006838;28;20026;-47
2022/07/29 11:04:15;;;;;;;5.45;2.63;;;;;;;;;;5009191;28;20033;-46
2022/07/29 11:07:02;;;;;;;6.85;2.90;;;;;;;;;;5009458;28;20161;-47
2022/07/29 11:10:15;;;;;;;9.15;2.80;;;;;;;;;;5008790;28;20250;-47
2022/07/29 11:13:01;;;;;;;11.15;3.20;;;;;;;;;;5006366;28;20040;-48
2022/07/29 11:15:53;;;;;;;10.80;3.20;;;;;;;;;;5009082;28;20038;-47
2022/07/29 11:19:10;;;;;;;6.35;3.67;;;;;;;;;;5006437;28;20045;-46
2022/07/29 11:21:56;;;;;;;9.73;3.90;;;;;;;;;;5008005;28;20077;-46
2022/07/29 11:24:41;;;;;;;6.25;3.22;;;;;;;;;;5009621;28;20037;-47
2022/07/29 11:27:39;;;;;;;5.65;2.97;;;;;;;;;;5008451;28;20121;-48
2022/07/29 11:30:49;;;;;;;8.07;3.10;;;;;;;;;;5008142;28;20125;-47
2022/07/29 11:33:35;;;;;;;8.88;3.03;;;;;;;;;;5005419;28;20042;-46
2022/07/29 11:36:21;;;;;;;4.85;3.30;;;;;;;;;;5006255;28;20041;-46
2022/07/29 11:39:26;;;;;;;14.55;3.25;;;;;;;;;;5008823;28;20030;-46
2022/07/29 11:42:24;;;;;;;10.00;3.40;;;;;;;;;;5007546;28;20030;-48
2022/07/29 11:45:17;;;;;;;11.73;4.93;;;;;;;;;;5005779;28;20053;-47
2022/07/29 11:48:05;;;;;;;9.65;3.97;;;;;;;;;;5004889;28;20463;-47
2022/07/29 11:50:51;;;;;;;5.70;3.55;;;;;;;;;;5004292;28;20049;-46
2022/07/29 11:53:39;;;;;;;10.63;4.28;;;;;;;;;;5007043;28;20399;-46
2022/07/29 11:56:29;;;;;;;10.07;3.53;;;;;;;;;;5006125;28;20045;-49
2022/07/29 11:59:15;;;;;;;5.25;3.10;;;;;;;;;;5009650;28;20033;-46
2022/07/29 12:02:01;;;;;;;8.65;3.45;;;;;;;;;;5008778;28;20030;-46
2022/07/29 12:04:58;;;;;;;6.80;2.80;;;;;;;;;;5006199;28;20076;-47
2022/07/29 12:07:44;;;;;;;4.15;2.92;;;;;;;;;;5003850;28;20221;-52
2022/07/29 12:10:32;;;;;;;5.78;2.90;;;;;;;;;;5006767;28;20122;-51
2022/07/29 12:13:19;;;;;;;6.35;2.70;;;;;;;;;;5004375;28;20036;-45
2022/07/29 12:16:05;;;;;;;9.45;3.05;;;;;;;;;;5008778;28;20452;-49
2022/07/29 12:18:58;;;;;;;6.10;2.72;;;;;;;;;;5005746;28;20030;-48
2022/07/29 12:21:46;;;;;;;5.80;2.72;;;;;;;;;;5005136;28;20482;-47
2022/07/29 12:24:43;;;;;;;2.85;2.20;;;;;;;;;;5002233;28;20084;-47
2022/07/29 12:27:30;;;;;;;3.05;1.90;;;;;;;;;;5007025;28;20030;-52
2022/07/29 12:30:16;;;;;;;5.20;2.13;;;;;;;;;;5008750;28;20133;-49
2022/07/29 12:33:11;;;;;;;2.75;2.20;;;;;;;;;;5000030;28;20033;-51
2022/07/29 12:36:01;;;;;;;6.55;2.08;;;;;;;;;;5007016;28;20561;-46
2022/07/29 12:38:47;;;;;;;2.63;1.92;;;;;;;;;;5004617;28;20030;-47
2022/07/29 12:41:33;;;;;;;2.22;1.85;;;;;;;;;;5006902;28;20554;-47
2022/07/29 12:44:18;;;;;;;2.70;2.10;;;;;;;;;;5007269;28;20053;-47
2022/07/29 12:47:04;;;;;;;2.28;1.60;;;;;;;;;;5006366;28;20149;-49
2022/07/29 12:50:06;;;;;;;2.35;2.00;;;;;;;;;;5002301;28;20072;-45
2022/07/29 12:52:52;;;;;;;2.53;1.80;;;;;;;;;;5005905;28;20041;-50
2022/07/29 12:55:44;;;;;;;4.03;1.88;;;;;;;;;;5002893;28;20068;-53
2022/07/29 12:58:30;;;;;;;;;;;;;;;;;;5006830;28;20050;-46
2022/07/29 13:01:19;;;;;;;2.72;1.80;;;;;;;;;;5003835;28;19943;-49
2022/07/29 13:04:05;;;;;;;2.10;1.70;;;;;;;;;;5007986;28;20022;-50
2022/07/29 13:06:59;;;;;;;5.35;2.08;;;;;;;;;;5003658;28;20031;-48
2022/07/29 13:09:45;;;;;;;3.55;1.90;;;;;;;;;;5005978;28;20525;-50
2022/07/29 13:12:31;;;;;;;4.93;2.03;;;;;;;;;;5006585;28;20495;-48
2022/07/29 13:15:17;;;;;;;5.25;1.90;;;;;;;;;;5005734;28;20014;-48
2022/07/29 13:18:03;;;;;;;2.17;2.00;;;;;;;;;;5006788;28;20647;-46
2022/07/29 13:20:49;;;;;;;7.85;2.10;;;;;;;;;;5005036;28;20057;-50
2022/07/29 13:23:35;;;;;;;1.83;1.73;;;;;;;;;;5004391;28;20371;-53
2022/07/29 13:26:21;;;;;;;5.13;1.55;;;;;;;;;;5005131;28;20056;-53
2022/07/29 13:29:07;;;;;;;2.88;1.60;;;;;;;;;;5008005;28;20037;-45
2022/07/29 13:31:52;;;;;;;3.75;1.80;;;;;;;;;;5009285;28;20068;-47
2022/07/29 13:34:38;;;;;;;3.10;1.73;;;;;;;;;;5003727;28;20565;-49
2022/07/29 13:37:25;;;;;;;2.55;1.27;;;;;;;;;;5005741;28;20026;-49
2022/07/29 13:40:12;;;;;;;1.30;1.20;;;;;;;;;;5006514;28;20033;-48
2022/07/29 13:42:58;;;;;;;1.35;1.25;;;;;;;;;;5004443;28;20132;-46
2022/07/29 13:45:43;;;;;;;1.15;1.10;;;;;;;;;;5005685;28;20038;-46
2022/07/29 13:48:29;;;;;;;1.98;1.20;;;;;;;;;;5005608;28;20033;-46
2022/07/29 13:51:15;;;;;;;5.18;1.42;;;;;;;;;;5006763;28;20038;-48
2022/07/29 13:54:01;;;;;;;1.30;1.20;;;;;;;;;;5005299;28;20033;-48
2022/07/29 13:56:46;;;;;;;1.38;1.20;;;;;;;;;;5005278;28;20482;-46
2022/07/29 13:59:33;;;;;;;1.30;1.00;;;;;;;;;;5002373;28;20036;-49
2022/07/29 14:02:18;;;;;;;2.70;1.27;;;;;;;;;;5002161;28;20430;-52
2022/07/29 14:05:05;;;;;;;1.55;1.20;;;;;;;;;;5006283;28;20022;-46
2022/07/29 14:07:51;;;;;;;1.50;1.40;;;;;;;;;;5007874;28;20104;-48
2022/07/29 14:10:37;;;;;;;2.35;1.20;;;;;;;;;;5003507;28;20034;-43
2022/07/29 14:13:22;;;;;;;4.20;1.20;;;;;;;;;;5003494;28;20053;-45
2022/07/29 14:16:08;;;;;;;2.95;1.10;;;;;;;;;;5001165;28;20030;-51
2022/07/29 14:18:54;;;;;;;1.60;1.10;;;;;;;;;;5000477;28;20022;-46
2022/07/29 14:21:40;;;;;;;1.52;1.00;;;;;;;;;;5006380;28;20042;-51
2022/07/29 14:24:25;;;;;;;1.23;0.80;;;;;;;;;;5004974;28;20161;-48
2022/07/29 14:27:11;;;;;;;1.00;0.90;;;;;;;;;;5005133;28;20035;-49
2022/07/29 14:29:57;;;;;;;0.80;0.80;;;;;;;;;;5004721;28;20022;-46
2022/07/29 14:32:43;;;;;;;4.03;1.08;;;;;;;;;;5005824;28;20037;-47
2022/07/29 14:35:29;;;;;;;1.45;0.93;;;;;;;;;;5005645;28;20030;-51
2022/07/29 14:38:14;;;;;;;1.02;0.73;;;;;;;;;;5002167;28;20035;-49
2022/07/29 14:41:00;;;;;;;0.90;0.90;;;;;;;;;;5003148;28;20029;-46
2022/07/29 14:43:46;;;;;;;1.05;0.93;;;;;;;;;;5003211;28;20099;-45
2022/07/29 14:46:32;;;;;;;2.88;1.00;;;;;;;;;;5004555;28;20438;-49
2022/07/29 14:49:17;;;;;;;3.22;0.98;;;;;;;;;;5005847;28;20053;-48
2022/07/29 14:52:04;;;;;;;0.80;0.80;;;;;;;;;;5008567;28;20026;-52
2022/07/29 14:54:49;;;;;;;0.90;0.90;;;;;;;;;;5006706;28;20041;-49
2022/07/29 14:57:35;;;;;;;1.00;1.00;;;;;;;;;;5005529;28;20133;-46
2022/07/29 15:00:21;;;;;;;1.42;0.95;;;;;;;;;;5008039;28;20026;-46
2022/07/29 15:03:10;;;;;;;2.08;0.82;;;;;;;;;;5011027;28;20408;-51
2022/07/29 15:05:55;;;;;;;0.95;0.95;;;;;;;;;;5009943;28;20034;-52
2022/07/29 15:08:41;;;;;;;3.35;1.00;;;;;;;;;;5005789;28;20042;-48
2022/07/29 15:11:27;;;;;;;1.30;1.20;;;;;;;;;;5008468;28;20026;-49
2022/07/29 15:14:13;;;;;;;1.38;1.17;;;;;;;;;;5005027;28;20030;-51
2022/07/29 15:16:59;;;;;;;1.20;1.10;;;;;;;;;;5007998;28;20030;-46
2022/07/29 15:19:44;;;;;;;1.23;1.10;;;;;;;;;;5007486;28;20033;-50
2022/07/29 15:22:30;;;;;;;1.63;1.30;;;;;;;;;;5006769;28;20121;-46
2022/07/29 15:25:16;;;;;;;2.25;1.00;;;;;;;;;;5003810;28;20026;-47
2022/07/29 15:28:03;;;;;;;1.65;1.13;;;;;;;;;;5004731;28;20034;-53
2022/07/29 15:30:49;;;;;;;2.15;1.10;;;;;;;;;;5002829;28;20053;-48
2022/07/29 15:33:35;;;;;;;1.88;1.60;;;;;;;;;;5008636;28;20077;-49
2022/07/29 15:36:21;;;;;;;2.90;1.20;;;;;;;;;;5008277;28;20482;-50
2022/07/29 15:39:06;;;;;;;1.38;0.90;;;;;;;;;;5004514;28;20396;-49
2022/07/29 15:41:52;;;;;;;3.80;0.98;;;;;;;;;;5006358;28;20543;-48
2022/07/29 15:44:38;;;;;;;2.78;1.45;;;;;;;;;;5007188;28;20467;-47
2022/07/29 15:47:24;;;;;;;1.02;1.02;;;;;;;;;;5004058;28;20403;-53
2022/07/29 15:50:14;;;;;;;1.48;1.38;;;;;;;;;;5008950;28;20029;-49
2022/07/29 15:53:00;;;;;;;1.05;1.05;;;;;;;;;;5006594;28;20080;-47
2022/07/29 15:55:46;;;;;;;1.60;1.50;;;;;;;;;;5007844;28;20026;-48
2022/07/29 15:58:32;;;;;;;1.48;1.35;;;;;;;;;;5006914;28;20029;-50
2022/07/29 16:01:18;;;;;;;1.42;1.35;;;;;;;;;;5006310;28;20056;-50
2022/07/29 16:04:03;;;;;;;1.85;1.30;;;;;;;;;;5007782;28;20514;-46
2022/07/29 16:06:50;;;;;;;1.50;1.40;;;;;;;;;;5005238;28;20399;-47
2022/07/29 16:09:35;;;;;;;1.90;1.48;;;;;;;;;;5004271;28;20025;-48
2022/07/29 16:12:21;;;;;;;1.52;1.42;;;;;;;;;;5008502;28;20105;-52
2022/07/29 16:15:08;;;;;;;1.83;1.50;;;;;;;;;;5004180;28;20061;-49
2022/07/29 16:17:54;;;;;;;2.10;1.65;;;;;;;;;;5006796;28;20064;-53
2022/07/29 16:20:40;;;;;;;1.83;1.40;;;;;;;;;;5008790;28;20029;-53
2022/07/29 16:23:26;;;;;;;3.17;1.83;;;;;;;;;;5006468;28;20080;-51
2022/07/29 16:26:12;;;;;;;1.58;1.48;;;;;;;;;;5007057;28;20121;-52
2022/07/29 16:28:58;;;;;;;4.97;1.52;;;;;;;;;;5005964;28;20033;-52
2022/07/29 16:31:44;;;;;;;2.65;1.40;;;;;;;;;;5005764;28;20038;-51
2022/07/29 16:34:29;;;;;;;1.60;1.50;;;;;;;;;;5004989;28;20041;-47
2022/07/29 16:37:15;;;;;;;1.90;1.67;;;;;;;;;;5007484;28;20064;-53
2022/07/29 16:40:03;;;;;;;1.98;1.65;;;;;;;;;;5007524;28;20032;-47
2022/07/29 16:42:49;;;;;;;1.60;1.50;;;;;;;;;;5003005;28;20030;-49
2022/07/29 16:45:35;;;;;;;1.50;1.40;;;;;;;;;;5007582;28;20107;-48
2022/07/29 16:48:21;;;;;;;2.22;1.60;;;;;;;;;;5008862;28;20462;-50
2022/07/29 16:51:07;;;;;;;1.83;1.73;;;;;;;;;;5005626;28;20094;-47
2022/07/29 16:53:52;;;;;;;2.72;1.85;;;;;;;;;;5007153;28;20026;-50
2022/07/29 16:56:38;;;;;;;1.80;1.70;;;;;;;;;;5006961;28;20041;-50
2022/07/29 16:59:24;;;;;;;4.70;1.77;;;;;;;;;;5005959;28;20076;-52
2022/07/29 17:02:10;;;;;;;2.10;1.90;;;;;;;;;;5003924;28;20722;-50